createdAt,value
2023-01-30T00:01:31.350Z,101260.59
2023-01-30T00:04:00.026Z,101248.28
2023-01-30T00:06:28.412Z,101239.50
2023-01-30T00:08:56.204Z,101237.75
2023-01-30T00:11:24.647Z,101242.09
2023-01-30T00:13:52.498Z,101246.53
2023-01-30T00:16:20.438Z,101243.03
2023-01-30T00:18:48.342Z,101254.41
2023-01-30T00:21:16.176Z,101268.41
2023-01-30T00:23:44.878Z,101282.41
2023-01-30T00:26:13.339Z,101283.28
2023-01-30T00:28:41.431Z,101287.69
2023-01-30T00:31:09.485Z,101293.78
2023-01-30T00:33:39.643Z,101308.72
2023-01-30T00:36:08.131Z,101303.41
2023-01-30T00:38:36.091Z,101295.56
2023-01-30T00:41:03.933Z,101298.25
2023-01-30T00:43:50.349Z,101293.88
2023-01-30T00:46:51.487Z,101300.88
2023-01-30T00:49:21.371Z,101295.56
2023-01-30T00:51:49.612Z,101306.13
2023-01-30T00:54:17.440Z,101306.13
2023-01-30T00:56:45.314Z,101304.38
2023-01-30T00:59:13.057Z,101293.88
2023-01-30T01:01:41.489Z,101300.00
2023-01-30T01:04:10.453Z,101301.75
2023-01-30T01:06:39.983Z,101300.88
2023-01-30T01:09:07.881Z,101305.31
2023-01-30T01:11:36.319Z,101307.88
2023-01-30T01:14:05.666Z,101294.78
2023-01-30T01:16:35.492Z,101300.94
2023-01-30T01:19:04.464Z,101285.97
2023-01-30T01:21:32.201Z,101280.81
2023-01-30T01:24:00.908Z,101263.28
2023-01-30T01:26:28.705Z,101264.22
2023-01-30T01:28:58.682Z,101251.91
2023-01-30T01:31:27.021Z,101224.69
2023-01-30T01:33:57.245Z,101240.59
2023-01-30T01:36:52.180Z,101231.84
2023-01-30T01:39:14.449Z,101224.06
2023-01-30T01:41:43.025Z,101198.66
2023-01-30T01:44:13.858Z,101200.41
2023-01-30T01:46:59.349Z,101224.09
2023-01-30T01:49:32.656Z,101225.00
2023-01-30T01:52:11.559Z,101201.31
2023-01-30T01:54:53.979Z,101183.78
2023-01-30T01:57:49.795Z,101193.44
2023-01-30T02:00:21.700Z,101193.41
2023-01-30T02:03:02.800Z,101196.03
2023-01-30T02:05:36.209Z,101191.63
2023-01-30T02:08:08.885Z,101174.97
2023-01-30T02:11:18.682Z,101189.00
2023-01-30T02:13:48.304Z,101168.78
2023-01-30T02:16:16.046Z,101163.53
2023-01-30T02:18:46.943Z,101180.25
2023-01-30T02:21:45.532Z,101168.84
2023-01-30T02:24:57.442Z,101157.44
2023-01-30T02:27:42.023Z,101153.84
2023-01-30T02:30:43.727Z,101164.47
2023-01-30T02:33:59.094Z,101159.19
2023-01-30T02:36:41.820Z,101133.78
2023-01-30T02:39:38.769Z,101121.50
2023-01-30T02:42:25.543Z,101080.25
2023-01-30T02:45:34.232Z,101074.97
2023-01-30T02:48:34.867Z,101088.97
2023-01-30T02:51:36.986Z,101106.50
2023-01-30T02:54:24.508Z,101095.97
2023-01-30T02:57:23.100Z,101074.06
2023-01-30T03:00:02.039Z,101056.44
2023-01-30T03:03:07.038Z,101050.38
2023-01-30T03:06:19.895Z,101046.88
2023-01-30T03:09:16.457Z,101068.78
2023-01-30T03:12:03.887Z,101075.81
2023-01-30T03:14:56.973Z,101096.00
2023-01-30T03:17:27.225Z,101088.06
2023-01-30T03:20:00.562Z,101093.34
2023-01-30T03:22:28.718Z,101084.56
2023-01-30T03:24:57.577Z,101089.81
2023-01-30T03:27:25.932Z,101094.16
2023-01-30T03:29:53.738Z,101084.56
2023-01-30T03:32:21.681Z,101101.22
2023-01-30T03:34:51.182Z,101096.84
2023-01-30T03:37:19.186Z,101115.28
2023-01-30T03:39:47.104Z,101110.03
2023-01-30T03:42:16.363Z,101114.47
2023-01-30T03:44:44.172Z,101119.72
2023-01-30T03:47:12.025Z,101118.88
2023-01-30T03:49:39.960Z,101124.16
2023-01-30T03:52:08.561Z,101096.09
2023-01-30T03:54:36.496Z,101114.53
2023-01-30T03:57:05.181Z,101097.00
2023-01-30T03:59:33.147Z,101106.66
2023-01-30T04:02:06.803Z,101098.78
2023-01-30T04:04:35.328Z,101090.88
2023-01-30T04:07:05.666Z,101104.97
2023-01-30T04:09:34.609Z,101101.44
2023-01-30T04:12:03.176Z,101102.34
2023-01-30T04:14:36.302Z,101090.03
2023-01-30T04:17:27.026Z,101091.81
2023-01-30T04:20:13.435Z,101089.16
2023-01-30T04:22:47.043Z,101099.72
2023-01-30T04:25:14.926Z,101097.06
2023-01-30T04:27:44.559Z,101119.00
2023-01-30T04:30:29.459Z,101110.25
2023-01-30T04:33:14.139Z,101116.38
2023-01-30T04:35:59.453Z,101091.78
2023-01-30T04:38:29.632Z,101096.16
2023-01-30T04:40:59.214Z,101094.41
2023-01-30T04:43:30.467Z,101091.78
2023-01-30T04:46:18.039Z,101079.47
2023-01-30T04:48:45.862Z,101096.16
2023-01-30T04:51:14.656Z,101079.50
2023-01-30T04:53:42.611Z,101068.94
2023-01-30T04:56:10.575Z,101080.34
2023-01-30T04:58:38.588Z,101060.16
2023-01-30T05:01:23.230Z,101064.56
2023-01-30T05:03:53.143Z,101051.38
2023-01-30T05:06:22.731Z,101050.50
2023-01-30T05:08:53.084Z,101053.16
2023-01-30T05:11:21.889Z,101058.41
2023-01-30T05:13:50.176Z,101046.97
2023-01-30T05:16:19.567Z,101044.34
2023-01-30T05:18:47.638Z,101043.47
2023-01-30T05:21:28.649Z,101028.53
2023-01-30T05:23:57.577Z,101017.16
2023-01-30T05:26:25.747Z,101021.53
2023-01-30T05:28:56.230Z,101019.78
2023-01-30T05:31:24.955Z,101018.91
2023-01-30T05:33:53.437Z,101012.75
2023-01-30T05:36:23.310Z,101035.59
2023-01-30T05:38:51.173Z,101023.31
2023-01-30T05:41:19.388Z,101034.72
2023-01-30T05:43:51.493Z,101022.41
2023-01-30T05:46:19.936Z,101026.81
2023-01-30T05:48:47.864Z,101034.69
2023-01-30T05:51:25.256Z,101033.81
2023-01-30T05:53:53.249Z,101018.00
2023-01-30T05:56:21.137Z,101016.28
2023-01-30T05:58:54.793Z,101007.50
2023-01-30T06:01:23.947Z,101011.00
2023-01-30T06:03:52.214Z,101006.63
2023-01-30T06:06:20.728Z,100996.06
2023-01-30T06:08:52.282Z,101003.97
2023-01-30T06:11:20.159Z,101014.50
2023-01-30T06:13:48.254Z,101016.22
2023-01-30T06:16:18.263Z,101003.94
2023-01-30T06:18:49.403Z,100997.75
2023-01-30T06:21:17.844Z,101017.03
2023-01-30T06:23:46.448Z,101010.84
2023-01-30T06:26:14.427Z,101040.66
2023-01-30T06:28:43.008Z,101035.41
2023-01-30T06:31:10.872Z,101036.28
2023-01-30T06:33:38.626Z,101042.41
2023-01-30T06:36:07.072Z,101034.50
2023-01-30T06:38:35.440Z,101039.84
2023-01-30T06:41:03.272Z,101039.00
2023-01-30T06:43:31.096Z,101030.22
2023-01-30T06:46:00.442Z,101037.25
2023-01-30T06:48:28.499Z,101024.97
2023-01-30T06:50:56.469Z,101038.19
2023-01-30T06:53:30.193Z,101030.25
2023-01-30T06:56:02.065Z,101040.81
2023-01-30T06:58:29.828Z,101041.72
2023-01-30T07:00:57.696Z,101055.72
2023-01-30T07:03:25.517Z,101075.03
2023-01-30T07:05:53.396Z,101075.06
2023-01-30T07:08:23.238Z,101075.94
2023-01-30T07:10:52.091Z,101072.38
2023-01-30T07:13:19.802Z,101070.63
2023-01-30T07:15:47.718Z,101074.13
2023-01-30T07:18:15.524Z,101067.13
2023-01-30T07:20:48.099Z,101068.00
2023-01-30T07:23:16.184Z,101073.28
2023-01-30T07:25:44.170Z,101063.66
2023-01-30T07:28:15.008Z,101071.53
2023-01-30T07:30:42.804Z,101070.63
2023-01-30T07:33:11.006Z,101070.66
2023-01-30T07:35:39.159Z,101042.53
2023-01-30T07:38:06.950Z,101024.13
2023-01-30T07:40:35.251Z,101003.09
2023-01-30T07:43:07.089Z,100968.00
2023-01-30T07:45:44.568Z,100939.03
2023-01-30T07:48:16.752Z,100957.44
2023-01-30T07:50:45.319Z,100968.00
2023-01-30T07:53:16.161Z,100970.63
2023-01-30T07:55:44.575Z,100990.78
2023-01-30T07:58:15.566Z,101002.19
2023-01-30T08:00:44.664Z,101015.34
2023-01-30T08:03:17.129Z,100995.19
2023-01-30T08:05:48.323Z,100974.13
2023-01-30T08:08:16.460Z,100986.41
2023-01-30T08:10:44.505Z,100979.41
2023-01-30T08:13:12.821Z,100976.78
2023-01-30T08:15:40.551Z,100970.63
2023-01-30T08:18:08.506Z,100972.38
2023-01-30T08:20:37.376Z,100972.41
2023-01-30T08:23:06.153Z,100971.50
2023-01-30T08:25:35.542Z,100976.78
2023-01-30T08:28:04.331Z,100965.38
2023-01-30T08:30:33.450Z,100954.84
2023-01-30T08:33:01.400Z,100966.25
2023-01-30T08:35:29.526Z,100968.00
2023-01-30T08:37:57.297Z,100966.25
2023-01-30T08:40:25.070Z,100975.00
2023-01-30T08:42:52.779Z,100982.88
2023-01-30T08:45:20.694Z,100974.13
2023-01-30T08:48:04.711Z,100947.81
2023-01-30T08:50:33.751Z,100953.06
2023-01-30T08:53:09.913Z,100944.28
2023-01-30T08:55:37.980Z,100943.41
2023-01-30T08:58:05.822Z,100948.69
2023-01-30T09:00:33.788Z,100961.88
2023-01-30T09:03:04.202Z,100966.22
2023-01-30T09:05:32.677Z,100958.34
2023-01-30T09:08:00.672Z,100977.66
2023-01-30T09:10:28.505Z,100982.06
2023-01-30T09:12:57.102Z,100973.28
2023-01-30T09:15:26.205Z,100984.69
2023-01-30T09:17:54.504Z,100983.78
2023-01-30T09:20:22.396Z,100966.25
2023-01-30T09:22:50.719Z,100959.22
2023-01-30T09:25:18.819Z,100950.44
2023-01-30T09:27:50.430Z,100954.81
2023-01-30T09:30:19.167Z,100970.63
2023-01-30T09:32:48.093Z,100956.56
2023-01-30T09:35:16.219Z,100954.84
2023-01-30T09:37:52.291Z,100957.47
2023-01-30T09:40:31.037Z,100952.16
2023-01-30T09:43:48.862Z,100954.81
2023-01-30T09:46:39.954Z,100946.03
2023-01-30T09:49:25.810Z,100946.00
2023-01-30T09:52:55.140Z,100931.09
2023-01-30T09:55:30.768Z,100922.28
2023-01-30T09:58:01.730Z,100935.44
2023-01-30T10:00:44.202Z,100930.19
2023-01-30T10:03:33.764Z,100941.59
2023-01-30T10:06:11.293Z,100939.84
2023-01-30T10:09:11.454Z,100943.34
2023-01-30T10:12:04.262Z,100946.84
2023-01-30T10:14:53.824Z,100960.94
2023-01-30T10:17:41.757Z,100952.16
2023-01-30T10:20:20.478Z,100938.97
2023-01-30T10:23:12.754Z,100938.97
2023-01-30T10:25:49.888Z,100932.81
2023-01-30T10:28:35.112Z,100931.03
2023-01-30T10:31:12.561Z,100923.13
2023-01-30T10:33:59.046Z,100931.88
2023-01-30T10:36:47.479Z,100928.38
2023-01-30T10:39:55.569Z,100936.28
2023-01-30T10:43:04.282Z,100942.44
2023-01-30T10:45:44.687Z,100948.59
2023-01-30T10:48:42.535Z,100944.16
2023-01-30T10:51:23.072Z,100941.53
2023-01-30T10:53:58.027Z,100937.13
2023-01-30T10:56:39.589Z,100930.94
2023-01-30T10:59:26.641Z,100953.78
2023-01-30T11:02:00.311Z,100946.75
2023-01-30T11:04:49.220Z,100952.06
2023-01-30T11:07:17.117Z,100952.06
2023-01-30T11:09:49.199Z,100944.13
2023-01-30T11:12:17.464Z,100933.56
2023-01-30T11:14:55.023Z,100929.19
2023-01-30T11:17:35.348Z,100929.19
2023-01-30T11:20:17.267Z,100920.41
2023-01-30T11:23:05.725Z,100924.78
2023-01-30T11:25:52.862Z,100918.66
2023-01-30T11:28:27.895Z,100928.34
2023-01-30T11:31:01.133Z,100934.47
2023-01-30T11:33:40.368Z,100937.13
2023-01-30T11:36:31.857Z,100921.31
2023-01-30T11:39:15.748Z,100942.38
2023-01-30T11:41:58.716Z,100932.72
2023-01-30T11:44:36.173Z,100908.09
2023-01-30T11:47:25.851Z,100914.28
2023-01-30T11:50:07.223Z,100919.56
2023-01-30T11:52:48.097Z,100927.50
2023-01-30T11:55:20.044Z,100922.19
2023-01-30T11:57:58.515Z,100933.59
2023-01-30T12:00:41.126Z,100914.22
2023-01-30T12:03:18.238Z,100909.84
2023-01-30T12:05:47.973Z,100916.00
2023-01-30T12:08:40.979Z,100922.13
2023-01-30T12:11:40.141Z,100918.63
2023-01-30T12:14:32.045Z,100923.06
2023-01-30T12:17:27.404Z,100915.16
2023-01-30T12:20:30.059Z,100927.44
2023-01-30T12:23:40.814Z,100921.28
2023-01-30T12:26:27.772Z,100929.22
2023-01-30T12:29:33.444Z,100938.88
2023-01-30T12:32:11.471Z,100938.03
2023-01-30T12:34:41.038Z,100920.41
2023-01-30T12:37:43.272Z,100916.00
2023-01-30T12:40:28.991Z,100923.03
2023-01-30T12:43:25.460Z,100919.47
2023-01-30T12:46:29.565Z,100930.91
2023-01-30T12:49:38.954Z,100929.19
2023-01-30T12:52:15.521Z,100922.13
2023-01-30T12:55:05.030Z,100931.78
2023-01-30T12:57:53.741Z,100917.72
2023-01-30T13:00:52.155Z,100923.00
2023-01-30T13:03:26.824Z,100937.09
2023-01-30T13:06:35.080Z,100930.03
2023-01-30T13:09:17.578Z,100923.84
2023-01-30T13:12:02.108Z,100920.34
2023-01-30T13:15:13.061Z,100922.94
2023-01-30T13:18:15.750Z,100937.84
2023-01-30T13:21:37.186Z,100933.44
2023-01-30T13:24:25.524Z,100914.09
2023-01-30T13:26:57.430Z,100937.84
2023-01-30T13:29:52.807Z,100946.63
2023-01-30T13:32:39.357Z,100956.28
2023-01-30T13:35:28.845Z,100949.19
2023-01-30T13:37:58.542Z,100955.34
2023-01-30T13:40:41.788Z,100946.50
2023-01-30T13:43:17.294Z,100960.59
2023-01-30T13:45:48.339Z,100939.47
2023-01-30T13:48:38.570Z,100939.41
2023-01-30T13:51:27.700Z,100940.25
2023-01-30T13:54:20.327Z,100940.25
2023-01-30T13:57:20.670Z,100923.56
2023-01-30T14:00:26.376Z,100948.19
2023-01-30T14:03:06.602Z,100949.94
2023-01-30T14:05:52.846Z,100941.16
2023-01-30T14:08:48.267Z,100935.00
2023-01-30T14:11:46.821Z,100945.56
2023-01-30T14:14:38.347Z,100941.13
2023-01-30T14:17:17.246Z,100943.72
2023-01-30T14:20:20.797Z,100926.16
2023-01-30T14:22:57.982Z,100944.53
2023-01-30T14:25:25.731Z,100945.38
2023-01-30T14:28:16.222Z,100934.78
2023-01-30T14:30:58.634Z,100938.28
2023-01-30T14:33:26.676Z,100949.72
2023-01-30T14:36:00.556Z,100954.06
2023-01-30T14:38:32.023Z,100968.09
2023-01-30T14:40:59.973Z,100965.38
2023-01-30T14:43:43.015Z,100976.75
2023-01-30T14:46:19.718Z,100995.22
2023-01-30T14:49:05.399Z,100978.44
2023-01-30T14:51:44.549Z,100989.91
2023-01-30T14:54:12.613Z,100999.56
2023-01-30T14:57:23.382Z,100988.16
2023-01-30T15:00:17.876Z,100998.72
2023-01-30T15:02:58.393Z,100986.41
2023-01-30T15:05:32.535Z,100987.31
2023-01-30T15:08:26.509Z,101000.50
2023-01-30T15:11:18.571Z,101008.38
2023-01-30T15:14:08.930Z,101017.38
2023-01-30T15:16:59.803Z,101001.41
2023-01-30T15:20:01.517Z,101019.03
2023-01-30T15:23:04.270Z,101023.44
2023-01-30T15:25:53.127Z,101041.00
2023-01-30T15:28:41.866Z,101040.13
2023-01-30T15:31:23.235Z,101036.59
2023-01-30T15:33:56.786Z,101045.41
2023-01-30T15:36:34.162Z,101051.53
2023-01-30T15:39:17.968Z,101046.31
2023-01-30T15:41:46.225Z,101050.72
2023-01-30T15:44:14.214Z,101048.91
2023-01-30T15:47:06.067Z,101052.41
2023-01-30T15:49:55.520Z,101047.13
2023-01-30T15:52:37.723Z,101052.44
2023-01-30T15:55:07.789Z,101053.31
2023-01-30T15:57:39.798Z,101050.69
2023-01-30T16:00:11.538Z,101064.78
2023-01-30T16:02:43.084Z,101070.06
2023-01-30T16:05:25.463Z,101067.38
2023-01-30T16:07:56.714Z,101064.81
2023-01-30T16:10:30.559Z,101078.03
2023-01-30T16:13:02.283Z,101067.50
2023-01-30T16:15:39.050Z,101058.69
2023-01-30T16:18:41.187Z,101076.31
2023-01-30T16:21:28.698Z,101086.00
2023-01-30T16:24:04.995Z,101091.28
2023-01-30T16:26:35.691Z,101101.84
2023-01-30T16:29:08.168Z,101098.31
2023-01-30T16:31:39.899Z,101111.50
2023-01-30T16:34:33.166Z,101118.59
2023-01-30T16:37:16.356Z,101113.34
2023-01-30T16:39:48.481Z,101127.44
2023-01-30T16:42:30.480Z,101148.63
2023-01-30T16:45:36.432Z,101155.72
2023-01-30T16:48:35.134Z,101149.59
2023-01-30T16:51:03.035Z,101156.63
2023-01-30T16:53:33.555Z,101142.56
2023-01-30T16:56:14.669Z,101153.13
2023-01-30T16:59:03.471Z,101153.13
2023-01-30T17:01:39.149Z,101157.56
2023-01-30T17:04:22.135Z,101151.41
2023-01-30T17:07:01.120Z,101153.19
2023-01-30T17:09:55.129Z,101156.69
2023-01-30T17:12:31.351Z,101153.19
2023-01-30T17:15:14.101Z,101139.09
2023-01-30T17:17:42.887Z,101146.16
2023-01-30T17:20:13.481Z,101145.28
2023-01-30T17:22:46.850Z,101153.22
2023-01-30T17:25:27.043Z,101149.69
2023-01-30T17:27:57.045Z,101139.16
2023-01-30T17:30:24.873Z,101151.47
2023-01-30T17:32:52.676Z,101165.53
2023-01-30T17:35:20.699Z,101170.84
2023-01-30T17:37:59.628Z,101169.06
2023-01-30T17:40:36.616Z,101186.69
2023-01-30T17:43:05.022Z,101197.25
2023-01-30T17:45:33.188Z,101196.38
2023-01-30T17:48:01.798Z,101197.25
2023-01-30T17:50:32.456Z,101199.88
2023-01-30T17:53:00.338Z,101214.00
2023-01-30T17:55:28.529Z,101223.69
2023-01-30T17:57:56.573Z,101226.31
2023-01-30T18:00:24.620Z,101241.25
2023-01-30T18:02:53.133Z,101235.13
2023-01-30T18:05:22.753Z,101240.38
2023-01-30T18:07:50.767Z,101243.94
2023-01-30T18:10:21.818Z,101243.03
2023-01-30T18:12:49.674Z,101254.47
2023-01-30T18:15:17.882Z,101251.84
2023-01-30T18:17:48.820Z,101253.59
2023-01-30T18:20:20.271Z,101256.25
2023-01-30T18:22:48.742Z,101257.13
2023-01-30T18:25:17.565Z,101270.34
2023-01-30T18:27:47.515Z,101275.59
2023-01-30T18:30:17.604Z,101280.88
2023-01-30T18:32:53.599Z,101287.91
2023-01-30T18:35:22.983Z,101284.41
2023-01-30T18:37:51.161Z,101287.91
2023-01-30T18:40:20.600Z,101285.25
2023-01-30T18:42:48.762Z,101283.50
2023-01-30T18:45:17.110Z,101284.38
2023-01-30T18:47:44.870Z,101276.47
2023-01-30T18:50:12.626Z,101284.41
2023-01-30T18:52:40.520Z,101287.91
2023-01-30T18:55:08.838Z,101283.50
2023-01-30T18:57:36.690Z,101299.38
2023-01-30T19:00:05.128Z,101297.59
2023-01-30T19:02:32.966Z,101284.38
2023-01-30T19:05:00.728Z,101297.59
2023-01-30T19:07:28.573Z,101287.88
2023-01-30T19:09:56.459Z,101294.94
2023-01-30T19:12:42.927Z,101293.19
2023-01-30T19:15:10.945Z,101287.03
2023-01-30T19:17:38.696Z,101300.19
2023-01-30T19:20:10.826Z,101300.19
2023-01-30T19:22:39.178Z,101304.59
2023-01-30T19:25:07.735Z,101306.38
2023-01-30T19:27:38.314Z,101313.38
2023-01-30T19:30:07.285Z,101329.25
2023-01-30T19:32:35.323Z,101323.09
2023-01-30T19:35:03.304Z,101311.66
2023-01-30T19:37:31.101Z,101329.25
2023-01-30T19:39:58.947Z,101342.47
2023-01-30T19:42:26.825Z,101333.69
2023-01-30T19:44:54.674Z,101346.00
2023-01-30T19:47:23.375Z,101341.56
2023-01-30T19:49:51.186Z,101341.59
2023-01-30T19:52:19.074Z,101344.25
2023-01-30T19:54:47.481Z,101333.66
2023-01-30T19:57:15.497Z,101349.50
2023-01-30T19:59:44.880Z,101345.97
2023-01-30T20:02:13.541Z,101355.66
2023-01-30T20:04:41.471Z,101361.81
2023-01-30T20:07:09.301Z,101376.81
2023-01-30T20:09:37.192Z,101371.53
2023-01-30T20:12:05.176Z,101377.69
2023-01-30T20:14:33.364Z,101372.41
2023-01-30T20:17:01.195Z,101380.31
2023-01-30T20:19:29.067Z,101376.78
2023-01-30T20:21:57.189Z,101374.16
2023-01-30T20:24:25.188Z,101384.72
2023-01-30T20:26:53.117Z,101369.72
2023-01-30T20:29:21.848Z,101371.47
2023-01-30T20:31:52.379Z,101377.66
2023-01-30T20:34:20.917Z,101384.72
2023-01-30T20:36:49.343Z,101397.94
2023-01-30T20:39:17.196Z,101393.56
2023-01-30T20:41:44.977Z,101399.72
2023-01-30T20:44:14.441Z,101397.94
2023-01-30T20:46:46.793Z,101397.06
2023-01-30T20:49:34.487Z,101399.69
2023-01-30T20:52:22.133Z,101419.09
2023-01-30T20:54:49.959Z,101410.28
2023-01-30T20:57:18.035Z,101406.78
2023-01-30T20:59:46.795Z,101408.53
2023-01-30T21:02:14.544Z,101417.34
2023-01-30T21:04:42.416Z,101428.78
2023-01-30T21:07:10.287Z,101442.88
2023-01-30T21:09:38.413Z,101442.00
2023-01-30T21:12:06.591Z,101434.94
2023-01-30T21:14:34.424Z,101441.13
2023-01-30T21:17:02.361Z,101443.75
2023-01-30T21:19:30.186Z,101456.13
2023-01-30T21:21:58.188Z,101454.34
2023-01-30T21:24:28.755Z,101451.69
2023-01-30T21:26:57.063Z,101450.81
2023-01-30T21:29:27.636Z,101461.38
2023-01-30T21:31:57.483Z,101453.44
2023-01-30T21:34:25.652Z,101470.19
2023-01-30T21:37:12.334Z,101464.00
2023-01-30T21:39:59.081Z,101459.63
2023-01-30T21:42:45.555Z,101469.31
2023-01-30T21:45:13.574Z,101472.81
2023-01-30T21:47:41.430Z,101475.47
2023-01-30T21:50:10.151Z,101479.84
2023-01-30T21:52:38.065Z,101478.09
2023-01-30T21:55:06.112Z,101486.03
2023-01-30T21:57:33.967Z,101486.00
2023-01-30T22:00:02.270Z,101487.81
2023-01-30T22:02:33.038Z,101489.56
2023-01-30T22:05:00.861Z,101485.16
2023-01-30T22:07:28.675Z,101506.31
2023-01-30T22:09:57.098Z,101504.56
2023-01-30T22:12:26.067Z,101498.41
2023-01-30T22:14:54.638Z,101486.94
2023-01-30T22:17:22.632Z,101494.00
2023-01-30T22:19:50.404Z,101514.25
2023-01-30T22:22:19.196Z,101505.44
2023-01-30T22:24:46.992Z,101501.03
2023-01-30T22:27:16.334Z,101507.22
2023-01-30T22:29:44.007Z,101508.97
2023-01-30T22:32:11.847Z,101508.97
2023-01-30T22:34:39.752Z,101510.72
2023-01-30T22:37:07.609Z,101516.03
2023-01-30T22:39:36.048Z,101501.91
2023-01-30T22:42:04.073Z,101506.31
2023-01-30T22:44:31.817Z,101502.78
2023-01-30T22:47:00.070Z,101516.03
2023-01-30T22:49:27.895Z,101517.78
2023-01-30T22:51:56.502Z,101511.63
2023-01-30T22:54:25.132Z,101507.22
2023-01-30T22:56:53.372Z,101512.50
2023-01-30T22:59:21.813Z,101501.06
2023-01-30T23:01:53.403Z,101518.66
2023-01-30T23:04:23.664Z,101517.78
2023-01-30T23:06:52.573Z,101520.44
2023-01-30T23:09:23.360Z,101515.16
2023-01-30T23:12:18.699Z,101514.28
2023-01-30T23:14:46.668Z,101518.69
2023-01-30T23:17:32.989Z,101516.03
2023-01-30T23:20:00.996Z,101488.72
2023-01-30T23:22:28.691Z,101481.69
2023-01-30T23:24:56.510Z,101481.66
2023-01-30T23:27:25.159Z,101470.22
2023-01-30T23:29:53.028Z,101487.84
2023-01-30T23:32:21.037Z,101479.03
2023-01-30T23:34:49.227Z,101479.91
2023-01-30T23:37:17.516Z,101471.09
2023-01-30T23:39:45.684Z,101468.44
2023-01-30T23:42:13.409Z,101466.69
2023-01-30T23:44:41.208Z,101475.53
2023-01-30T23:47:09.070Z,101467.56
2023-01-30T23:49:36.884Z,101471.97
2023-01-30T23:52:04.855Z,101475.50
2023-01-30T23:54:32.625Z,101480.78
2023-01-30T23:57:00.412Z,101472.00
2023-01-30T23:59:28.312Z,101471.09
